sensor_id;sensor_type;location;lat;lon;timestamp;P1;durP1;ratioP1;P2;durP2;ratioP2
74158;SDS011;62511;47.970;11.774;2024-01-30T00:00:32;3.47;;;2.03;;
74158;SDS011;62511;47.970;11.774;2024-01-30T00:02:58;2.22;;;1.30;;
74158;SDS011;62511;47.970;11.774;2024-01-30T00:05:24;2.72;;;1.77;;
74158;SDS011;62511;47.970;11.774;2024-01-30T00:07:52;4.28;;;2.47;;
74158;SDS011;62511;47.970;11.774;2024-01-30T00:10:18;1.88;;;1.75;;
74158;SDS011;62511;47.970;11.774;2024-01-30T00:12:44;3.50;;;1.70;;
74158;SDS011;62511;47.970;11.774;2024-01-30T00:15:10;4.20;;;1.75;;
74158;SDS011;62511;47.970;11.774;2024-01-30T00:17:36;4.10;;;2.08;;
74158;SDS011;62511;47.970;11.774;2024-01-30T00:20:03;4.50;;;2.20;;
74158;SDS011;62511;47.970;11.774;2024-01-30T00:22:31;3.53;;;2.50;;
74158;SDS011;62511;47.970;11.774;2024-01-30T00:24:58;2.25;;;1.50;;
74158;SDS011;62511;47.970;11.774;2024-01-30T00:27:24;3.90;;;2.15;;
74158;SDS011;62511;47.970;11.774;2024-01-30T00:29:50;3.47;;;1.42;;
74158;SDS011;62511;47.970;11.774;2024-01-30T00:32:16;4.63;;;2.20;;
74158;SDS011;62511;47.970;11.774;2024-01-30T00:34:44;3.05;;;1.40;;
74158;SDS011;62511;47.970;11.774;2024-01-30T00:37:11;3.13;;;2.00;;
74158;SDS011;62511;47.970;11.774;2024-01-30T00:39:37;4.65;;;1.95;;
74158;SDS011;62511;47.970;11.774;2024-01-30T00:42:04;3.35;;;1.65;;
74158;SDS011;62511;47.970;11.774;2024-01-30T00:44:30;1.88;;;1.23;;
74158;SDS011;62511;47.970;11.774;2024-01-30T00:46:58;3.88;;;1.77;;
74158;SDS011;62511;47.970;11.774;2024-01-30T00:49:24;3.17;;;2.00;;
74158;SDS011;62511;47.970;11.774;2024-01-30T00:51:51;3.45;;;2.00;;
74158;SDS011;62511;47.970;11.774;2024-01-30T00:54:17;1.70;;;1.42;;
74158;SDS011;62511;47.970;11.774;2024-01-30T00:56:43;2.50;;;1.60;;
74158;SDS011;62511;47.970;11.774;2024-01-30T00:59:09;3.20;;;2.03;;
74158;SDS011;62511;47.970;11.774;2024-01-30T01:01:35;2.15;;;1.42;;
74158;SDS011;62511;47.970;11.774;2024-01-30T01:04:03;3.45;;;1.92;;
74158;SDS011;62511;47.970;11.774;2024-01-30T01:08:56;6.50;;;1.77;;
74158;SDS011;62511;47.970;11.774;2024-01-30T01:11:23;3.22;;;1.83;;
74158;SDS011;62511;47.970;11.774;2024-01-30T01:13:50;3.22;;;1.52;;
74158;SDS011;62511;47.970;11.774;2024-01-30T01:16:17;4.03;;;1.90;;
74158;SDS011;62511;47.970;11.774;2024-01-30T01:18:43;2.13;;;1.17;;
74158;SDS011;62511;47.970;11.774;2024-01-30T01:21:10;2.30;;;1.58;;
74158;SDS011;62511;47.970;11.774;2024-01-30T01:23:36;2.75;;;1.13;;
74158;SDS011;62511;47.970;11.774;2024-01-30T01:26:02;2.38;;;1.60;;
74158;SDS011;62511;47.970;11.774;2024-01-30T01:28:29;2.13;;;1.63;;
74158;SDS011;62511;47.970;11.774;2024-01-30T01:30:55;2.70;;;1.38;;
74158;SDS011;62511;47.970;11.774;2024-01-30T01:33:24;2.55;;;1.42;;
74158;SDS011;62511;47.970;11.774;2024-01-30T01:35:50;1.85;;;1.30;;
74158;SDS011;62511;47.970;11.774;2024-01-30T01:38:16;8.35;;;0.90;;
74158;SDS011;62511;47.970;11.774;2024-01-30T01:40:42;4.72;;;2.05;;
74158;SDS011;62511;47.970;11.774;2024-01-30T01:43:09;2.72;;;1.63;;
74158;SDS011;62511;47.970;11.774;2024-01-30T01:45:35;3.08;;;1.38;;
74158;SDS011;62511;47.970;11.774;2024-01-30T01:48:01;6.20;;;1.65;;
74158;SDS011;62511;47.970;11.774;2024-01-30T01:50:27;3.45;;;1.02;;
74158;SDS011;62511;47.970;11.774;2024-01-30T01:52:53;1.33;;;1.00;;
74158;SDS011;62511;47.970;11.774;2024-01-30T01:55:21;3.40;;;1.48;;
74158;SDS011;62511;47.970;11.774;2024-01-30T01:57:48;4.38;;;1.00;;
74158;SDS011;62511;47.970;11.774;2024-01-30T02:00:15;2.08;;;1.10;;
74158;SDS011;62511;47.970;11.774;2024-01-30T02:02:43;3.10;;;1.48;;
74158;SDS011;62511;47.970;11.774;2024-01-30T02:05:09;2.00;;;1.25;;
74158;SDS011;62511;47.970;11.774;2024-01-30T02:07:36;2.95;;;1.05;;
74158;SDS011;62511;47.970;11.774;2024-01-30T02:10:03;2.92;;;1.40;;
74158;SDS011;62511;47.970;11.774;2024-01-30T02:12:33;0.65;;;0.55;;
74158;SDS011;62511;47.970;11.774;2024-01-30T02:14:59;2.45;;;1.13;;
74158;SDS011;62511;47.970;11.774;2024-01-30T02:17:25;1.65;;;1.35;;
74158;SDS011;62511;47.970;11.774;2024-01-30T02:19:51;1.42;;;1.02;;
74158;SDS011;62511;47.970;11.774;2024-01-30T02:22:17;1.20;;;0.80;;
74158;SDS011;62511;47.970;11.774;2024-01-30T02:24:44;2.17;;;1.30;;
74158;SDS011;62511;47.970;11.774;2024-01-30T02:27:11;2.90;;;1.08;;
74158;SDS011;62511;47.970;11.774;2024-01-30T02:29:38;1.92;;;1.00;;
74158;SDS011;62511;47.970;11.774;2024-01-30T02:32:04;3.10;;;0.90;;
74158;SDS011;62511;47.970;11.774;2024-01-30T02:34:32;0.88;;;0.82;;
74158;SDS011;62511;47.970;11.774;2024-01-30T02:36:58;1.38;;;0.88;;
74158;SDS011;62511;47.970;11.774;2024-01-30T02:39:24;2.50;;;1.13;;
74158;SDS011;62511;47.970;11.774;2024-01-30T02:41:51;1.15;;;0.98;;
74158;SDS011;62511;47.970;11.774;2024-01-30T02:44:17;1.77;;;1.52;;
74158;SDS011;62511;47.970;11.774;2024-01-30T02:46:43;2.88;;;1.50;;
74158;SDS011;62511;47.970;11.774;2024-01-30T02:49:11;2.28;;;0.95;;
74158;SDS011;62511;47.970;11.774;2024-01-30T02:51:37;2.15;;;0.93;;
74158;SDS011;62511;47.970;11.774;2024-01-30T02:54:04;3.08;;;1.25;;
74158;SDS011;62511;47.970;11.774;2024-01-30T02:56:30;3.90;;;0.88;;
74158;SDS011;62511;47.970;11.774;2024-01-30T02:58:57;1.77;;;0.80;;
74158;SDS011;62511;47.970;11.774;2024-01-30T03:01:27;0.88;;;0.55;;
74158;SDS011;62511;47.970;11.774;2024-01-30T03:03:53;1.13;;;0.85;;
74158;SDS011;62511;47.970;11.774;2024-01-30T03:06:19;2.05;;;1.27;;
74158;SDS011;62511;47.970;11.774;2024-01-30T03:08:47;1.35;;;0.85;;
74158;SDS011;62511;47.970;11.774;2024-01-30T03:11:13;1.77;;;1.17;;
74158;SDS011;62511;47.970;11.774;2024-01-30T03:13:40;2.10;;;0.85;;
74158;SDS011;62511;47.970;11.774;2024-01-30T03:16:08;1.02;;;0.82;;
74158;SDS011;62511;47.970;11.774;2024-01-30T03:18:35;0.65;;;0.65;;
74158;SDS011;62511;47.970;11.774;2024-01-30T03:21:01;0.65;;;0.52;;
74158;SDS011;62511;47.970;11.774;2024-01-30T03:23:28;1.20;;;0.70;;
74158;SDS011;62511;47.970;11.774;2024-01-30T03:25:54;1.38;;;0.70;;
74158;SDS011;62511;47.970;11.774;2024-01-30T03:28:20;0.85;;;0.80;;
74158;SDS011;62511;47.970;11.774;2024-01-30T03:30:47;1.17;;;0.85;;
74158;SDS011;62511;47.970;11.774;2024-01-30T03:33:13;1.35;;;1.08;;
74158;SDS011;62511;47.970;11.774;2024-01-30T03:35:39;1.13;;;0.90;;
74158;SDS011;62511;47.970;11.774;2024-01-30T03:38:05;0.98;;;0.98;;
74158;SDS011;62511;47.970;11.774;2024-01-30T03:40:31;3.38;;;1.65;;
74158;SDS011;62511;47.970;11.774;2024-01-30T03:42:57;0.88;;;0.52;;
74158;SDS011;62511;47.970;11.774;2024-01-30T03:45:24;1.92;;;0.90;;
74158;SDS011;62511;47.970;11.774;2024-01-30T03:47:50;1.65;;;0.98;;
74158;SDS011;62511;47.970;11.774;2024-01-30T03:50:16;2.55;;;1.00;;
74158;SDS011;62511;47.970;11.774;2024-01-30T03:52:43;1.67;;;1.17;;
74158;SDS011;62511;47.970;11.774;2024-01-30T03:55:09;1.45;;;0.70;;
74158;SDS011;62511;47.970;11.774;2024-01-30T03:57:35;0.82;;;0.80;;
74158;SDS011;62511;47.970;11.774;2024-01-30T04:00:01;1.67;;;0.90;;
74158;SDS011;62511;47.970;11.774;2024-01-30T04:02:30;2.13;;;1.00;;
74158;SDS011;62511;47.970;11.774;2024-01-30T04:04:56;0.63;;;0.55;;
74158;SDS011;62511;47.970;11.774;2024-01-30T04:07:22;2.42;;;0.98;;
74158;SDS011;62511;47.970;11.774;2024-01-30T04:09:48;2.08;;;0.90;;
74158;SDS011;62511;47.970;11.774;2024-01-30T04:12:15;1.58;;;0.80;;
74158;SDS011;62511;47.970;11.774;2024-01-30T04:14:41;0.77;;;0.77;;
74158;SDS011;62511;47.970;11.774;2024-01-30T04:17:07;1.52;;;0.65;;
74158;SDS011;62511;47.970;11.774;2024-01-30T04:19:37;1.55;;;1.05;;
74158;SDS011;62511;47.970;11.774;2024-01-30T04:22:04;0.65;;;0.57;;
74158;SDS011;62511;47.970;11.774;2024-01-30T04:24:31;1.85;;;0.68;;
74158;SDS011;62511;47.970;11.774;2024-01-30T04:26:57;1.27;;;1.10;;
74158;SDS011;62511;47.970;11.774;2024-01-30T04:29:23;0.85;;;0.75;;
74158;SDS011;62511;47.970;11.774;2024-01-30T04:31:49;0.95;;;0.70;;
74158;SDS011;62511;47.970;11.774;2024-01-30T04:34:15;0.90;;;0.75;;
74158;SDS011;62511;47.970;11.774;2024-01-30T04:36:44;1.70;;;0.98;;
74158;SDS011;62511;47.970;11.774;2024-01-30T04:39:10;1.52;;;0.95;;
74158;SDS011;62511;47.970;11.774;2024-01-30T04:41:37;2.38;;;0.95;;
74158;SDS011;62511;47.970;11.774;2024-01-30T04:44:05;0.43;;;0.43;;
74158;SDS011;62511;47.970;11.774;2024-01-30T04:46:31;0.60;;;0.60;;
74158;SDS011;62511;47.970;11.774;2024-01-30T04:48:59;1.30;;;0.60;;
74158;SDS011;62511;47.970;11.774;2024-01-30T04:51:26;3.00;;;0.80;;
74158;SDS011;62511;47.970;11.774;2024-01-30T04:53:52;0.60;;;0.60;;
74158;SDS011;62511;47.970;11.774;2024-01-30T04:56:18;0.85;;;0.60;;
74158;SDS011;62511;47.970;11.774;2024-01-30T04:58:44;1.98;;;0.77;;
74158;SDS011;62511;47.970;11.774;2024-01-30T05:01:14;0.60;;;0.60;;
74158;SDS011;62511;47.970;11.774;2024-01-30T05:03:41;1.63;;;0.80;;
74158;SDS011;62511;47.970;11.774;2024-01-30T05:06:08;1.45;;;0.70;;
74158;SDS011;62511;47.970;11.774;2024-01-30T05:08:34;1.70;;;0.70;;
74158;SDS011;62511;47.970;11.774;2024-01-30T05:11:04;0.98;;;0.57;;
74158;SDS011;62511;47.970;11.774;2024-01-30T05:13:31;2.40;;;1.25;;
74158;SDS011;62511;47.970;11.774;2024-01-30T05:15:57;1.08;;;0.52;;
74158;SDS011;62511;47.970;11.774;2024-01-30T05:18:24;0.60;;;0.47;;
74158;SDS011;62511;47.970;11.774;2024-01-30T05:20:51;8.32;;;0.80;;
74158;SDS011;62511;47.970;11.774;2024-01-30T05:23:19;1.67;;;0.70;;
74158;SDS011;62511;47.970;11.774;2024-01-30T05:25:45;0.88;;;0.77;;
74158;SDS011;62511;47.970;11.774;2024-01-30T05:28:11;2.30;;;0.70;;
74158;SDS011;62511;47.970;11.774;2024-01-30T05:30:37;3.88;;;1.08;;
74158;SDS011;62511;47.970;11.774;2024-01-30T05:33:03;2.25;;;1.25;;
74158;SDS011;62511;47.970;11.774;2024-01-30T05:35:30;1.77;;;0.73;;
74158;SDS011;62511;47.970;11.774;2024-01-30T05:37:56;0.77;;;0.75;;
74158;SDS011;62511;47.970;11.774;2024-01-30T05:40:23;1.35;;;0.82;;
74158;SDS011;62511;47.970;11.774;2024-01-30T05:42:49;0.52;;;0.52;;
74158;SDS011;62511;47.970;11.774;2024-01-30T05:45:15;0.52;;;0.52;;
74158;SDS011;62511;47.970;11.774;2024-01-30T05:47:41;0.65;;;0.60;;
74158;SDS011;62511;47.970;11.774;2024-01-30T05:50:09;0.85;;;0.77;;
74158;SDS011;62511;47.970;11.774;2024-01-30T05:52:35;1.42;;;0.73;;
74158;SDS011;62511;47.970;11.774;2024-01-30T05:55:01;1.88;;;1.08;;
74158;SDS011;62511;47.970;11.774;2024-01-30T05:57:28;2.03;;;1.33;;
74158;SDS011;62511;47.970;11.774;2024-01-30T05:59:54;1.08;;;0.93;;
74158;SDS011;62511;47.970;11.774;2024-01-30T06:02:22;0.75;;;0.70;;
74158;SDS011;62511;47.970;11.774;2024-01-30T06:04:49;0.85;;;0.50;;
74158;SDS011;62511;47.970;11.774;2024-01-30T06:07:15;1.48;;;0.95;;
74158;SDS011;62511;47.970;11.774;2024-01-30T06:09:42;2.03;;;1.08;;
74158;SDS011;62511;47.970;11.774;2024-01-30T06:12:10;0.80;;;0.80;;
74158;SDS011;62511;47.970;11.774;2024-01-30T06:14:39;1.45;;;1.27;;
74158;SDS011;62511;47.970;11.774;2024-01-30T06:17:07;2.45;;;1.35;;
74158;SDS011;62511;47.970;11.774;2024-01-30T06:19:34;1.63;;;0.85;;
74158;SDS011;62511;47.970;11.774;2024-01-30T06:22:00;2.00;;;0.98;;
74158;SDS011;62511;47.970;11.774;2024-01-30T06:24:29;3.53;;;1.92;;
74158;SDS011;62511;47.970;11.774;2024-01-30T06:26:56;1.17;;;0.98;;
74158;SDS011;62511;47.970;11.774;2024-01-30T06:29:22;3.42;;;2.45;;
74158;SDS011;62511;47.970;11.774;2024-01-30T06:31:53;3.05;;;1.30;;
74158;SDS011;62511;47.970;11.774;2024-01-30T06:34:19;1.52;;;1.20;;
74158;SDS011;62511;47.970;11.774;2024-01-30T06:36:45;2.17;;;0.70;;
74158;SDS011;62511;47.970;11.774;2024-01-30T06:39:12;4.20;;;1.98;;
74158;SDS011;62511;47.970;11.774;2024-01-30T06:41:39;1.38;;;1.13;;
74158;SDS011;62511;47.970;11.774;2024-01-30T06:44:05;1.60;;;1.00;;
74158;SDS011;62511;47.970;11.774;2024-01-30T06:46:33;1.45;;;1.30;;
74158;SDS011;62511;47.970;11.774;2024-01-30T06:48:59;5.57;;;1.63;;
74158;SDS011;62511;47.970;11.774;2024-01-30T06:51:26;2.13;;;1.05;;
74158;SDS011;62511;47.970;11.774;2024-01-30T06:53:52;1.52;;;0.65;;
74158;SDS011;62511;47.970;11.774;2024-01-30T06:56:19;2.00;;;0.70;;
74158;SDS011;62511;47.970;11.774;2024-01-30T06:58:49;3.35;;;0.68;;
74158;SDS011;62511;47.970;11.774;2024-01-30T07:01:16;1.40;;;0.77;;
74158;SDS011;62511;47.970;11.774;2024-01-30T07:03:42;2.15;;;1.10;;
74158;SDS011;62511;47.970;11.774;2024-01-30T07:06:08;1.30;;;0.93;;
74158;SDS011;62511;47.970;11.774;2024-01-30T07:08:36;1.17;;;0.80;;
74158;SDS011;62511;47.970;11.774;2024-01-30T07:11:05;0.60;;;0.60;;
74158;SDS011;62511;47.970;11.774;2024-01-30T07:13:32;2.60;;;1.27;;
74158;SDS011;62511;47.970;11.774;2024-01-30T07:15:58;1.38;;;1.20;;
74158;SDS011;62511;47.970;11.774;2024-01-30T07:18:24;3.58;;;2.08;;
74158;SDS011;62511;47.970;11.774;2024-01-30T07:20:50;2.30;;;1.67;;
74158;SDS011;62511;47.970;11.774;2024-01-30T07:23:17;2.13;;;0.80;;
74158;SDS011;62511;47.970;11.774;2024-01-30T07:25:43;5.57;;;1.17;;
74158;SDS011;62511;47.970;11.774;2024-01-30T07:28:10;4.07;;;1.27;;
74158;SDS011;62511;47.970;11.774;2024-01-30T07:30:37;2.83;;;1.42;;
74158;SDS011;62511;47.970;11.774;2024-01-30T07:33:03;1.17;;;0.85;;
74158;SDS011;62511;47.970;11.774;2024-01-30T07:35:29;1.60;;;1.23;;
74158;SDS011;62511;47.970;11.774;2024-01-30T07:37:56;1.35;;;0.90;;
74158;SDS011;62511;47.970;11.774;2024-01-30T07:40:22;0.82;;;0.73;;
74158;SDS011;62511;47.970;11.774;2024-01-30T07:42:49;6.53;;;1.30;;
74158;SDS011;62511;47.970;11.774;2024-01-30T07:45:15;2.63;;;1.17;;
74158;SDS011;62511;47.970;11.774;2024-01-30T07:47:41;2.15;;;1.13;;
74158;SDS011;62511;47.970;11.774;2024-01-30T07:50:08;2.30;;;1.10;;
74158;SDS011;62511;47.970;11.774;2024-01-30T07:52:34;2.08;;;1.30;;
74158;SDS011;62511;47.970;11.774;2024-01-30T07:55:00;0.98;;;0.68;;
74158;SDS011;62511;47.970;11.774;2024-01-30T07:57:29;4.10;;;2.55;;
74158;SDS011;62511;47.970;11.774;2024-01-30T07:59:55;1.10;;;1.00;;
74158;SDS011;62511;47.970;11.774;2024-01-30T08:02:22;0.90;;;0.70;;
74158;SDS011;62511;47.970;11.774;2024-01-30T08:04:48;0.80;;;0.70;;
74158;SDS011;62511;47.970;11.774;2024-01-30T08:07:14;2.65;;;1.27;;
74158;SDS011;62511;47.970;11.774;2024-01-30T08:09:42;1.98;;;1.10;;
74158;SDS011;62511;47.970;11.774;2024-01-30T08:12:09;4.22;;;1.40;;
74158;SDS011;62511;47.970;11.774;2024-01-30T08:14:35;1.60;;;1.20;;
74158;SDS011;62511;47.970;11.774;2024-01-30T08:17:01;2.03;;;1.08;;
74158;SDS011;62511;47.970;11.774;2024-01-30T08:19:27;3.65;;;1.73;;
74158;SDS011;62511;47.970;11.774;2024-01-30T08:21:53;21.83;;;9.45;;
74158;SDS011;62511;47.970;11.774;2024-01-30T08:24:22;6.13;;;4.13;;
74158;SDS011;62511;47.970;11.774;2024-01-30T08:26:48;18.42;;;9.65;;
74158;SDS011;62511;47.970;11.774;2024-01-30T08:29:15;11.75;;;7.18;;
74158;SDS011;62511;47.970;11.774;2024-01-30T08:31:42;6.28;;;5.18;;
74158;SDS011;62511;47.970;11.774;2024-01-30T08:34:09;5.25;;;4.40;;
74158;SDS011;62511;47.970;11.774;2024-01-30T08:36:35;8.40;;;4.45;;
74158;SDS011;62511;47.970;11.774;2024-01-30T08:39:02;4.10;;;2.75;;
74158;SDS011;62511;47.970;11.774;2024-01-30T08:41:28;3.47;;;2.28;;
74158;SDS011;62511;47.970;11.774;2024-01-30T08:43:55;3.58;;;1.83;;
74158;SDS011;62511;47.970;11.774;2024-01-30T08:46:21;4.70;;;2.85;;
74158;SDS011;62511;47.970;11.774;2024-01-30T08:48:47;10.48;;;4.07;;
74158;SDS011;62511;47.970;11.774;2024-01-30T08:51:13;12.77;;;5.50;;
74158;SDS011;62511;47.970;11.774;2024-01-30T08:53:40;8.60;;;4.28;;
74158;SDS011;62511;47.970;11.774;2024-01-30T08:56:06;10.55;;;4.07;;
74158;SDS011;62511;47.970;11.774;2024-01-30T08:58:33;9.88;;;4.53;;
74158;SDS011;62511;47.970;11.774;2024-01-30T09:00:59;11.07;;;5.57;;
74158;SDS011;62511;47.970;11.774;2024-01-30T09:03:25;8.05;;;4.47;;
74158;SDS011;62511;47.970;11.774;2024-01-30T09:05:52;5.90;;;2.70;;
74158;SDS011;62511;47.970;11.774;2024-01-30T09:08:19;2.63;;;1.52;;
74158;SDS011;62511;47.970;11.774;2024-01-30T09:10:45;1.75;;;1.35;;
74158;SDS011;62511;47.970;11.774;2024-01-30T09:13:11;3.50;;;1.63;;
74158;SDS011;62511;47.970;11.774;2024-01-30T09:15:38;2.90;;;1.45;;
74158;SDS011;62511;47.970;11.774;2024-01-30T09:18:04;8.43;;;1.75;;
74158;SDS011;62511;47.970;11.774;2024-01-30T09:20:32;3.35;;;1.40;;
74158;SDS011;62511;47.970;11.774;2024-01-30T09:25:25;6.75;;;2.08;;
74158;SDS011;62511;47.970;11.774;2024-01-30T09:27:51;4.57;;;1.75;;
74158;SDS011;62511;47.970;11.774;2024-01-30T09:30:18;3.28;;;2.03;;
74158;SDS011;62511;47.970;11.774;2024-01-30T09:32:44;4.75;;;1.80;;
74158;SDS011;62511;47.970;11.774;2024-01-30T09:35:11;2.25;;;1.77;;
74158;SDS011;62511;47.970;11.774;2024-01-30T09:37:37;15.85;;;4.72;;
74158;SDS011;62511;47.970;11.774;2024-01-30T09:40:03;18.23;;;5.93;;
74158;SDS011;62511;47.970;11.774;2024-01-30T09:42:34;12.43;;;4.32;;
74158;SDS011;62511;47.970;11.774;2024-01-30T09:45:04;2.60;;;1.58;;
74158;SDS011;62511;47.970;11.774;2024-01-30T09:47:36;4.47;;;2.30;;
74158;SDS011;62511;47.970;11.774;2024-01-30T09:50:06;3.42;;;1.88;;
74158;SDS011;62511;47.970;11.774;2024-01-30T09:52:33;2.72;;;1.70;;
74158;SDS011;62511;47.970;11.774;2024-01-30T09:55:00;3.90;;;2.05;;
74158;SDS011;62511;47.970;11.774;2024-01-30T09:57:26;2.65;;;1.67;;
74158;SDS011;62511;47.970;11.774;2024-01-30T09:59:53;3.60;;;1.92;;
74158;SDS011;62511;47.970;11.774;2024-01-30T10:02:20;2.38;;;1.60;;
74158;SDS011;62511;47.970;11.774;2024-01-30T10:04:50;3.10;;;1.60;;
74158;SDS011;62511;47.970;11.774;2024-01-30T10:07:17;5.22;;;1.50;;
74158;SDS011;62511;47.970;11.774;2024-01-30T10:09:43;2.45;;;1.50;;
74158;SDS011;62511;47.970;11.774;2024-01-30T10:12:10;5.03;;;1.27;;
74158;SDS011;62511;47.970;11.774;2024-01-30T10:14:40;3.53;;;1.20;;
74158;SDS011;62511;47.970;11.774;2024-01-30T10:17:09;3.38;;;1.25;;
74158;SDS011;62511;47.970;11.774;2024-01-30T10:19:39;4.93;;;1.25;;
74158;SDS011;62511;47.970;11.774;2024-01-30T10:22:09;3.28;;;1.33;;
74158;SDS011;62511;47.970;11.774;2024-01-30T10:24:35;2.92;;;1.30;;
74158;SDS011;62511;47.970;11.774;2024-01-30T10:27:02;3.47;;;1.30;;
74158;SDS011;62511;47.970;11.774;2024-01-30T10:29:28;1.38;;;1.00;;
74158;SDS011;62511;47.970;11.774;2024-01-30T10:31:58;2.63;;;1.40;;
74158;SDS011;62511;47.970;11.774;2024-01-30T10:34:25;2.70;;;1.25;;
74158;SDS011;62511;47.970;11.774;2024-01-30T10:36:53;2.90;;;1.98;;
74158;SDS011;62511;47.970;11.774;2024-01-30T10:39:22;3.95;;;1.83;;
74158;SDS011;62511;47.970;11.774;2024-01-30T10:41:48;7.15;;;2.65;;
74158;SDS011;62511;47.970;11.774;2024-01-30T10:44:18;3.08;;;1.60;;
74158;SDS011;62511;47.970;11.774;2024-01-30T10:46:45;1.80;;;1.23;;
74158;SDS011;62511;47.970;11.774;2024-01-30T10:49:15;1.30;;;0.95;;
74158;SDS011;62511;47.970;11.774;2024-01-30T10:51:42;2.28;;;1.30;;
74158;SDS011;62511;47.970;11.774;2024-01-30T10:54:09;1.75;;;0.70;;
74158;SDS011;62511;47.970;11.774;2024-01-30T10:56:36;6.15;;;1.10;;
74158;SDS011;62511;47.970;11.774;2024-01-30T10:59:03;2.92;;;0.95;;
74158;SDS011;62511;47.970;11.774;2024-01-30T11:01:29;2.25;;;0.80;;
74158;SDS011;62511;47.970;11.774;2024-01-30T11:03:56;1.10;;;0.60;;
74158;SDS011;62511;47.970;11.774;2024-01-30T11:06:22;1.48;;;0.60;;
74158;SDS011;62511;47.970;11.774;2024-01-30T11:09:01;1.67;;;0.60;;
74158;SDS011;62511;47.970;11.774;2024-01-30T11:14:23;1.02;;;0.52;;
74158;SDS011;62511;47.970;11.774;2024-01-30T11:16:53;1.23;;;0.65;;
74158;SDS011;62511;47.970;11.774;2024-01-30T11:19:24;0.80;;;0.57;;
74158;SDS011;62511;47.970;11.774;2024-01-30T11:21:51;1.10;;;0.70;;
74158;SDS011;62511;47.970;11.774;2024-01-30T11:24:21;1.02;;;0.50;;
74158;SDS011;62511;47.970;11.774;2024-01-30T11:26:48;0.77;;;0.57;;
74158;SDS011;62511;47.970;11.774;2024-01-30T11:29:16;0.50;;;0.43;;
74158;SDS011;62511;47.970;11.774;2024-01-30T11:31:56;1.20;;;0.60;;
74158;SDS011;62511;47.970;11.774;2024-01-30T11:34:22;0.60;;;0.50;;
74158;SDS011;62511;47.970;11.774;2024-01-30T11:36:53;0.50;;;0.40;;
74158;SDS011;62511;47.970;11.774;2024-01-30T11:39:25;1.45;;;0.77;;
74158;SDS011;62511;47.970;11.774;2024-01-30T11:41:52;0.82;;;0.52;;
74158;SDS011;62511;47.970;11.774;2024-01-30T11:44:24;0.70;;;0.50;;
74158;SDS011;62511;47.970;11.774;2024-01-30T11:46:51;1.85;;;0.52;;
74158;SDS011;62511;47.970;11.774;2024-01-30T11:49:18;1.10;;;0.50;;
74158;SDS011;62511;47.970;11.774;2024-01-30T11:51:45;0.40;;;0.40;;
74158;SDS011;62511;47.970;11.774;2024-01-30T11:54:14;1.48;;;0.60;;
74158;SDS011;62511;47.970;11.774;2024-01-30T11:56:40;0.98;;;0.50;;
74158;SDS011;62511;47.970;11.774;2024-01-30T11:59:06;0.57;;;0.40;;
74158;SDS011;62511;47.970;11.774;2024-01-30T12:01:32;1.35;;;0.50;;
74158;SDS011;62511;47.970;11.774;2024-01-30T12:03:59;0.45;;;0.30;;
74158;SDS011;62511;47.970;11.774;2024-01-30T12:06:25;0.40;;;0.40;;
74158;SDS011;62511;47.970;11.774;2024-01-30T12:08:56;2.13;;;0.80;;
74158;SDS011;62511;47.970;11.774;2024-01-30T12:11:23;2.80;;;0.95;;
74158;SDS011;62511;47.970;11.774;2024-01-30T12:13:49;1.40;;;0.60;;
74158;SDS011;62511;47.970;11.774;2024-01-30T12:16:16;0.80;;;0.60;;
74158;SDS011;62511;47.970;11.774;2024-01-30T12:18:42;2.42;;;0.70;;
74158;SDS011;62511;47.970;11.774;2024-01-30T12:21:08;2.30;;;0.60;;
74158;SDS011;62511;47.970;11.774;2024-01-30T12:23:34;1.23;;;0.63;;
74158;SDS011;62511;47.970;11.774;2024-01-30T12:26:01;1.00;;;0.50;;
74158;SDS011;62511;47.970;11.774;2024-01-30T12:28:29;1.23;;;0.52;;
74158;SDS011;62511;47.970;11.774;2024-01-30T12:30:56;3.30;;;0.50;;
74158;SDS011;62511;47.970;11.774;2024-01-30T12:33:26;0.85;;;0.47;;
74158;SDS011;62511;47.970;11.774;2024-01-30T12:35:53;1.88;;;0.60;;
74158;SDS011;62511;47.970;11.774;2024-01-30T12:38:19;0.55;;;0.40;;
74158;SDS011;62511;47.970;11.774;2024-01-30T12:40:46;0.68;;;0.40;;
74158;SDS011;62511;47.970;11.774;2024-01-30T12:43:13;0.82;;;0.50;;
74158;SDS011;62511;47.970;11.774;2024-01-30T12:45:41;1.05;;;0.60;;
74158;SDS011;62511;47.970;11.774;2024-01-30T12:48:07;0.90;;;0.60;;
74158;SDS011;62511;47.970;11.774;2024-01-30T12:50:33;0.60;;;0.43;;
74158;SDS011;62511;47.970;11.774;2024-01-30T12:53:00;1.42;;;0.70;;
74158;SDS011;62511;47.970;11.774;2024-01-30T12:55:26;1.13;;;0.50;;
74158;SDS011;62511;47.970;11.774;2024-01-30T12:57:54;1.25;;;0.60;;
74158;SDS011;62511;47.970;11.774;2024-01-30T13:02:47;0.60;;;0.45;;
74158;SDS011;62511;47.970;11.774;2024-01-30T13:05:14;0.88;;;0.63;;
74158;SDS011;62511;47.970;11.774;2024-01-30T13:07:40;1.05;;;0.50;;
74158;SDS011;62511;47.970;11.774;2024-01-30T13:10:06;1.10;;;0.63;;
74158;SDS011;62511;47.970;11.774;2024-01-30T13:12:32;0.95;;;0.77;;
74158;SDS011;62511;47.970;11.774;2024-01-30T13:14:59;3.35;;;0.82;;
74158;SDS011;62511;47.970;11.774;2024-01-30T13:17:29;2.28;;;0.45;;
74158;SDS011;62511;47.970;11.774;2024-01-30T13:19:56;0.73;;;0.55;;
74158;SDS011;62511;47.970;11.774;2024-01-30T13:22:23;2.05;;;0.90;;
74158;SDS011;62511;47.970;11.774;2024-01-30T13:27:15;1.85;;;0.77;;
74158;SDS011;62511;47.970;11.774;2024-01-30T13:29:42;4.45;;;0.90;;
74158;SDS011;62511;47.970;11.774;2024-01-30T13:32:08;1.42;;;0.60;;
74158;SDS011;62511;47.970;11.774;2024-01-30T13:34:34;0.93;;;0.40;;
74158;SDS011;62511;47.970;11.774;2024-01-30T13:37:01;0.90;;;0.60;;
74158;SDS011;62511;47.970;11.774;2024-01-30T13:39:27;1.80;;;0.82;;
74158;SDS011;62511;47.970;11.774;2024-01-30T13:44:20;0.85;;;0.50;;
74158;SDS011;62511;47.970;11.774;2024-01-30T13:46:47;3.03;;;0.68;;
74158;SDS011;62511;47.970;11.774;2024-01-30T13:49:13;1.70;;;0.70;;
74158;SDS011;62511;47.970;11.774;2024-01-30T13:51:40;1.15;;;0.57;;
74158;SDS011;62511;47.970;11.774;2024-01-30T13:54:06;1.83;;;0.50;;
74158;SDS011;62511;47.970;11.774;2024-01-30T13:56:33;1.83;;;0.70;;
74158;SDS011;62511;47.970;11.774;2024-01-30T13:58:59;0.60;;;0.50;;
74158;SDS011;62511;47.970;11.774;2024-01-30T14:01:30;0.93;;;0.50;;
74158;SDS011;62511;47.970;11.774;2024-01-30T14:03:58;0.80;;;0.32;;
74158;SDS011;62511;47.970;11.774;2024-01-30T14:06:24;1.17;;;0.65;;
74158;SDS011;62511;47.970;11.774;2024-01-30T14:08:51;3.35;;;0.70;;
74158;SDS011;62511;47.970;11.774;2024-01-30T14:11:17;0.85;;;0.80;;
74158;SDS011;62511;47.970;11.774;2024-01-30T14:13:45;0.95;;;0.82;;
74158;SDS011;62511;47.970;11.774;2024-01-30T14:16:11;1.00;;;0.70;;
74158;SDS011;62511;47.970;11.774;2024-01-30T14:18:37;1.10;;;0.52;;
74158;SDS011;62511;47.970;11.774;2024-01-30T14:21:03;0.70;;;0.40;;
74158;SDS011;62511;47.970;11.774;2024-01-30T14:23:29;1.10;;;0.47;;
74158;SDS011;62511;47.970;11.774;2024-01-30T14:25:55;0.95;;;0.60;;
74158;SDS011;62511;47.970;11.774;2024-01-30T14:28:21;1.02;;;0.65;;
74158;SDS011;62511;47.970;11.774;2024-01-30T14:30:49;1.92;;;0.82;;
74158;SDS011;62511;47.970;11.774;2024-01-30T14:33:17;0.57;;;0.57;;
74158;SDS011;62511;47.970;11.774;2024-01-30T14:35:44;1.10;;;0.57;;
74158;SDS011;62511;47.970;11.774;2024-01-30T14:38:10;2.58;;;0.77;;
74158;SDS011;62511;47.970;11.774;2024-01-30T14:40:37;1.95;;;0.80;;
74158;SDS011;62511;47.970;11.774;2024-01-30T14:43:03;1.58;;;0.63;;
74158;SDS011;62511;47.970;11.774;2024-01-30T14:45:29;5.32;;;3.92;;